sensor_id;sensor_type;location;lat;lon;timestamp;pressure;altitude;pressure_sealevel;temperature;humidity
73151;BME280;61354;50.758;6.106;2023-06-24T00:02:12;100024.75;;;17.80;94.39
73151;BME280;61354;50.758;6.106;2023-06-24T00:04:38;100017.47;;;17.75;94.53
73151;BME280;61354;50.758;6.106;2023-06-24T00:07:04;100017.50;;;17.79;95.36
73151;BME280;61354;50.758;6.106;2023-06-24T00:09:30;100016.28;;;17.76;94.73
73151;BME280;61354;50.758;6.106;2023-06-24T00:11:57;100021.94;;;17.80;94.76
73151;BME280;61354;50.758;6.106;2023-06-24T00:14:24;100016.31;;;17.80;94.95
73151;BME280;61354;50.758;6.106;2023-06-24T00:16:52;100019.78;;;17.70;95.49
73151;BME280;61354;50.758;6.106;2023-06-24T00:19:22;100009.28;;;17.67;95.51
73151;BME280;61354;50.758;6.106;2023-06-24T00:21:49;100011.06;;;17.78;94.10
73151;BME280;61354;50.758;6.106;2023-06-24T00:24:17;100014.34;;;17.84;94.66
73151;BME280;61354;50.758;6.106;2023-06-24T00:26:46;100013.56;;;17.87;93.74
73151;BME280;61354;50.758;6.106;2023-06-24T00:29:12;100016.03;;;17.92;93.95
73151;BME280;61354;50.758;6.106;2023-06-24T00:31:38;100011.22;;;17.93;93.06
73151;BME280;61354;50.758;6.106;2023-06-24T00:34:03;99996.38;;;17.92;93.79
73151;BME280;61354;50.758;6.106;2023-06-24T00:36:30;100003.59;;;17.93;93.44
73151;BME280;61354;50.758;6.106;2023-06-24T00:38:57;100004.81;;;17.92;93.92
73151;BME280;61354;50.758;6.106;2023-06-24T00:41:29;100002.34;;;17.91;94.01
73151;BME280;61354;50.758;6.106;2023-06-24T00:43:55;100001.56;;;17.90;94.38
73151;BME280;61354;50.758;6.106;2023-06-24T00:46:26;100006.25;;;17.79;94.44
73151;BME280;61354;50.758;6.106;2023-06-24T00:48:56;100006.31;;;17.86;94.09
73151;BME280;61354;50.758;6.106;2023-06-24T00:51:22;100009.53;;;17.84;94.41
73151;BME280;61354;50.758;6.106;2023-06-24T00:53:52;100013.22;;;17.55;95.86
73151;BME280;61354;50.758;6.106;2023-06-24T00:56:20;100011.78;;;17.72;95.61
73151;BME280;61354;50.758;6.106;2023-06-24T00:58:47;100006.84;;;17.61;95.66
73151;BME280;61354;50.758;6.106;2023-06-24T01:01:14;100007.63;;;17.58;95.64
73151;BME280;61354;50.758;6.106;2023-06-24T01:03:40;100006.84;;;17.61;95.50
73151;BME280;61354;50.758;6.106;2023-06-24T01:06:06;100011.28;;;17.62;95.17
73151;BME280;61354;50.758;6.106;2023-06-24T01:08:34;100006.47;;;17.63;94.94
73151;BME280;61354;50.758;6.106;2023-06-24T01:11:00;100008.03;;;17.60;96.01
73151;BME280;61354;50.758;6.106;2023-06-24T01:13:25;100012.53;;;17.69;94.33
73151;BME280;61354;50.758;6.106;2023-06-24T01:15:51;100008.88;;;17.64;95.23
73151;BME280;61354;50.758;6.106;2023-06-24T01:18:40;100012.94;;;17.67;94.94
73151;BME280;61354;50.758;6.106;2023-06-24T01:24:15;100007.72;;;17.69;94.27
73151;BME280;61354;50.758;6.106;2023-06-24T01:32:38;100014.00;;;17.55;96.45
73151;BME280;61354;50.758;6.106;2023-06-24T01:35:10;100006.00;;;17.57;95.82
73151;BME280;61354;50.758;6.106;2023-06-24T01:37:42;100011.25;;;17.59;95.43
73151;BME280;61354;50.758;6.106;2023-06-24T01:40:25;100014.81;;;17.56;95.72
73151;BME280;61354;50.758;6.106;2023-06-24T01:42:51;100013.75;;;17.34;97.15
73151;BME280;61354;50.758;6.106;2023-06-24T01:45:30;100015.31;;;17.31;97.40
73151;BME280;61354;50.758;6.106;2023-06-24T01:48:13;100020.03;;;17.24;97.91
73151;BME280;61354;50.758;6.106;2023-06-24T01:50:44;100018.53;;;17.33;96.60
73151;BME280;61354;50.758;6.106;2023-06-24T01:53:11;100014.50;;;17.31;97.47
73151;BME280;61354;50.758;6.106;2023-06-24T01:55:41;100016.47;;;17.27;98.22
73151;BME280;61354;50.758;6.106;2023-06-24T01:58:08;100004.50;;;17.33;96.36
73151;BME280;61354;50.758;6.106;2023-06-24T02:00:34;100014.41;;;17.24;97.26
73151;BME280;61354;50.758;6.106;2023-06-24T02:03:01;100006.00;;;17.24;97.91
73151;BME280;61354;50.758;6.106;2023-06-24T02:05:28;100006.44;;;17.26;97.19
73151;BME280;61354;50.758;6.106;2023-06-24T02:07:55;100006.00;;;17.24;97.38
73151;BME280;61354;50.758;6.106;2023-06-24T02:10:22;100003.19;;;17.24;97.91
73151;BME280;61354;50.758;6.106;2023-06-24T02:12:50;100007.19;;;17.23;97.77
73151;BME280;61354;50.758;6.106;2023-06-24T02:15:16;100003.19;;;17.24;97.98
73151;BME280;61354;50.758;6.106;2023-06-24T02:17:44;100005.59;;;17.22;98.15
73151;BME280;61354;50.758;6.106;2023-06-24T02:20:11;99999.91;;;17.18;98.40
73151;BME280;61354;50.758;6.106;2023-06-24T02:22:38;99999.16;;;17.21;98.42
73151;BME280;61354;50.758;6.106;2023-06-24T02:25:05;100004.38;;;17.23;97.80
73151;BME280;61354;50.758;6.106;2023-06-24T02:27:32;100009.56;;;17.21;98.69
73151;BME280;61354;50.758;6.106;2023-06-24T02:30:00;100003.81;;;17.10;99.28
73151;BME280;61354;50.758;6.106;2023-06-24T02:32:25;100001.38;;;17.08;99.96
73151;BME280;61354;50.758;6.106;2023-06-24T02:34:51;100007.03;;;17.12;99.05
73151;BME280;61354;50.758;6.106;2023-06-24T02:37:16;100009.91;;;17.15;98.80
73151;BME280;61354;50.758;6.106;2023-06-24T02:39:42;100016.59;;;17.07;99.31
73151;BME280;61354;50.758;6.106;2023-06-24T02:42:10;100011.75;;;17.04;99.17
73151;BME280;61354;50.758;6.106;2023-06-24T02:44:38;100010.47;;;16.98;99.83
73151;BME280;61354;50.758;6.106;2023-06-24T02:47:06;100015.69;;;17.00;99.80
73151;BME280;61354;50.758;6.106;2023-06-24T02:49:33;100010.81;;;16.93;100.00
73151;BME280;61354;50.758;6.106;2023-06-24T02:51:59;100009.63;;;16.94;100.00
73151;BME280;61354;50.758;6.106;2023-06-24T02:54:25;100013.97;;;16.88;100.00
73151;BME280;61354;50.758;6.106;2023-06-24T02:56:51;100013.13;;;16.87;100.00
73151;BME280;61354;50.758;6.106;2023-06-24T02:59:17;100021.06;;;16.82;100.00
73151;BME280;61354;50.758;6.106;2023-06-24T03:01:47;100014.44;;;16.71;100.00
73151;BME280;61354;50.758;6.106;2023-06-24T03:04:13;100009.31;;;16.73;100.00
73151;BME280;61354;50.758;6.106;2023-06-24T03:06:40;100022.00;;;16.66;100.00
73151;BME280;61354;50.758;6.106;2023-06-24T03:09:06;100017.00;;;16.76;100.00
73151;BME280;61354;50.758;6.106;2023-06-24T03:11:40;100017.25;;;16.71;100.00
73151;BME280;61354;50.758;6.106;2023-06-24T03:14:06;100020.53;;;16.73;100.00
73151;BME280;61354;50.758;6.106;2023-06-24T03:16:31;100018.06;;;16.71;100.00
73151;BME280;61354;50.758;6.106;2023-06-24T03:18:57;100021.59;;;16.64;100.00
73151;BME280;61354;50.758;6.106;2023-06-24T03:21:23;100025.25;;;16.69;100.00
73151;BME280;61354;50.758;6.106;2023-06-24T03:23:54;100027.94;;;16.61;100.00
73151;BME280;61354;50.758;6.106;2023-06-24T03:26:20;100032.81;;;16.64;100.00
73151;BME280;61354;50.758;6.106;2023-06-24T03:28:45;100025.59;;;16.63;100.00
73151;BME280;61354;50.758;6.106;2023-06-24T03:31:11;100037.22;;;16.65;100.00
73151;BME280;61354;50.758;6.106;2023-06-24T03:33:37;100031.56;;;16.62;100.00
73151;BME280;61354;50.758;6.106;2023-06-24T03:36:03;100030.41;;;16.66;100.00
73151;BME280;61354;50.758;6.106;2023-06-24T03:38:28;100033.56;;;16.61;100.00
73151;BME280;61354;50.758;6.106;2023-06-24T03:40:54;100035.94;;;16.59;100.00
73151;BME280;61354;50.758;6.106;2023-06-24T03:43:19;100036.69;;;16.56;100.00
73151;BME280;61354;50.758;6.106;2023-06-24T03:45:45;100047.16;;;16.59;100.00
73151;BME280;61354;50.758;6.106;2023-06-24T03:48:11;100046.75;;;16.61;100.00
73151;BME280;61354;50.758;6.106;2023-06-24T03:50:36;100046.28;;;16.55;100.00
73151;BME280;61354;50.758;6.106;2023-06-24T03:53:03;100049.91;;;16.56;100.00
73151;BME280;61354;50.758;6.106;2023-06-24T03:55:29;100054.91;;;16.43;100.00
73151;BME280;61354;50.758;6.106;2023-06-24T03:57:55;100054.91;;;16.43;100.00
73151;BME280;61354;50.758;6.106;2023-06-24T04:00:20;100053.44;;;16.53;100.00
73151;BME280;61354;50.758;6.106;2023-06-24T04:02:46;100060.59;;;16.50;100.00
73151;BME280;61354;50.758;6.106;2023-06-24T04:05:12;100056.50;;;16.44;100.00
73151;BME280;61354;50.758;6.106;2023-06-24T04:07:37;100056.50;;;16.44;100.00
73151;BME280;61354;50.758;6.106;2023-06-24T04:10:04;100066.13;;;16.43;100.00
73151;BME280;61354;50.758;6.106;2023-06-24T04:12:37;100061.78;;;16.49;100.00
73151;BME280;61354;50.758;6.106;2023-06-24T04:15:03;100067.53;;;16.56;100.00
73151;BME280;61354;50.758;6.106;2023-06-24T04:17:29;100067.06;;;16.54;100.00
73151;BME280;61354;50.758;6.106;2023-06-24T04:19:55;100060.09;;;16.68;100.00
73151;BME280;61354;50.758;6.106;2023-06-24T04:22:21;100065.66;;;16.64;100.00
73151;BME280;61354;50.758;6.106;2023-06-24T04:24:46;100067.19;;;16.61;100.00
73151;BME280;61354;50.758;6.106;2023-06-24T04:27:12;100068.94;;;16.70;100.00
73151;BME280;61354;50.758;6.106;2023-06-24T04:29:37;100063.41;;;16.73;100.00
73151;BME280;61354;50.758;6.106;2023-06-24T04:32:03;100069.88;;;16.77;100.00
73151;BME280;61354;50.758;6.106;2023-06-24T04:34:29;100076.31;;;16.78;100.00
73151;BME280;61354;50.758;6.106;2023-06-24T04:36:55;100069.09;;;16.77;100.00
73151;BME280;61354;50.758;6.106;2023-06-24T04:39:20;100073.09;;;16.76;100.00
73151;BME280;61354;50.758;6.106;2023-06-24T04:41:46;100069.09;;;16.77;100.00
73151;BME280;61354;50.758;6.106;2023-06-24T04:44:12;100065.19;;;16.85;100.00
73151;BME280;61354;50.758;6.106;2023-06-24T04:46:38;100067.63;;;16.86;100.00
73151;BME280;61354;50.758;6.106;2023-06-24T04:49:05;100064.06;;;16.89;100.00
73151;BME280;61354;50.758;6.106;2023-06-24T04:51:31;100063.69;;;16.91;100.00
73151;BME280;61354;50.758;6.106;2023-06-24T04:53:57;100064.47;;;16.92;100.00
73151;BME280;61354;50.758;6.106;2023-06-24T04:56:23;100070.59;;;16.97;100.00
73151;BME280;61354;50.758;6.106;2023-06-24T04:58:48;100068.66;;;17.01;100.00
73151;BME280;61354;50.758;6.106;2023-06-24T05:01:14;100079.09;;;17.04;100.00
73151;BME280;61354;50.758;6.106;2023-06-24T05:03:39;100079.09;;;17.04;100.00
73151;BME280;61354;50.758;6.106;2023-06-24T05:06:05;100075.13;;;17.05;100.00
73151;BME280;61354;50.758;6.106;2023-06-24T05:08:31;100073.59;;;17.11;100.00
73151;BME280;61354;50.758;6.106;2023-06-24T05:10:56;100073.25;;;17.17;100.00
73151;BME280;61354;50.758;6.106;2023-06-24T05:13:23;100072.94;;;17.22;100.00
73151;BME280;61354;50.758;6.106;2023-06-24T05:15:48;100060.19;;;17.28;100.00
73151;BME280;61354;50.758;6.106;2023-06-24T05:18:14;100064.28;;;17.34;100.00
73151;BME280;61354;50.758;6.106;2023-06-24T05:20:39;100062.75;;;17.40;100.00
73151;BME280;61354;50.758;6.106;2023-06-24T05:23:05;100062.00;;;17.43;100.00
73151;BME280;61354;50.758;6.106;2023-06-24T05:25:31;100050.00;;;17.46;100.00
73151;BME280;61354;50.758;6.106;2023-06-24T05:27:57;100058.91;;;17.52;100.00
73151;BME280;61354;50.758;6.106;2023-06-24T05:30:22;100056.59;;;17.61;100.00
73151;BME280;61354;50.758;6.106;2023-06-24T05:32:48;100057.06;;;17.67;100.00
73151;BME280;61354;50.758;6.106;2023-06-24T05:35:14;100057.53;;;17.72;100.00
73151;BME280;61354;50.758;6.106;2023-06-24T05:37:39;100058.03;;;17.78;100.00
73151;BME280;61354;50.758;6.106;2023-06-24T05:40:06;100048.03;;;17.80;100.00
73151;BME280;61354;50.758;6.106;2023-06-24T05:42:32;100052.91;;;17.87;100.00
73151;BME280;61354;50.758;6.106;2023-06-24T05:44:59;100049.75;;;17.92;100.00
73151;BME280;61354;50.758;6.106;2023-06-24T05:47:24;100059.03;;;17.96;100.00
73151;BME280;61354;50.758;6.106;2023-06-24T05:49:50;100054.25;;;18.00;99.98
73151;BME280;61354;50.758;6.106;2023-06-24T05:52:15;100057.91;;;18.04;99.63
73151;BME280;61354;50.758;6.106;2023-06-24T05:54:41;100063.94;;;18.06;98.90
73151;BME280;61354;50.758;6.106;2023-06-24T05:57:07;100060.38;;;18.09;98.49
73151;BME280;61354;50.758;6.106;2023-06-24T05:59:33;100060.44;;;18.17;98.57
73151;BME280;61354;50.758;6.106;2023-06-24T06:01:58;100056.00;;;18.16;97.85
73151;BME280;61354;50.758;6.106;2023-06-24T06:04:24;100052.00;;;18.17;97.32
73151;BME280;61354;50.758;6.106;2023-06-24T06:06:50;100056.06;;;18.23;97.21
73151;BME280;61354;50.758;6.106;2023-06-24T06:09:15;100059.72;;;18.27;96.84
73151;BME280;61354;50.758;6.106;2023-06-24T06:11:41;100060.97;;;18.29;96.34
73151;BME280;61354;50.758;6.106;2023-06-24T06:14:09;100064.22;;;18.35;96.53
73151;BME280;61354;50.758;6.106;2023-06-24T06:16:35;100059.84;;;18.41;96.28
73151;BME280;61354;50.758;6.106;2023-06-24T06:19:00;100063.09;;;18.43;95.25
73151;BME280;61354;50.758;6.106;2023-06-24T06:21:26;100055.06;;;18.45;95.08
73151;BME280;61354;50.758;6.106;2023-06-24T06:23:52;100063.97;;;18.51;94.85
73151;BME280;61354;50.758;6.106;2023-06-24T06:26:17;100061.59;;;18.56;94.19
73151;BME280;61354;50.758;6.106;2023-06-24T06:28:43;100071.28;;;18.62;93.82
73151;BME280;61354;50.758;6.106;2023-06-24T06:31:08;100054.81;;;18.64;93.57
73151;BME280;61354;50.758;6.106;2023-06-24T06:33:34;100063.72;;;18.70;93.08
73151;BME280;61354;50.758;6.106;2023-06-24T06:35:59;100070.22;;;18.78;94.12
73151;BME280;61354;50.758;6.106;2023-06-24T06:38:25;100063.47;;;18.90;96.08
73151;BME280;61354;50.758;6.106;2023-06-24T06:40:51;100067.91;;;18.94;94.43
73151;BME280;61354;50.758;6.106;2023-06-24T06:43:16;100072.41;;;19.02;95.50
73151;BME280;61354;50.758;6.106;2023-06-24T06:45:42;100076.47;;;19.08;94.82
73151;BME280;61354;50.758;6.106;2023-06-24T06:48:07;100074.50;;;19.12;93.62
73151;BME280;61354;50.758;6.106;2023-06-24T06:50:34;100078.91;;;19.13;92.47
73151;BME280;61354;50.758;6.106;2023-06-24T06:53:00;100080.53;;;19.18;93.05
73151;BME280;61354;50.758;6.106;2023-06-24T06:55:26;100078.97;;;19.21;91.59
73151;BME280;61354;50.758;6.106;2023-06-24T06:57:52;100086.25;;;19.29;92.20
73151;BME280;61354;50.758;6.106;2023-06-24T07:00:18;100087.06;;;19.29;91.33
73151;BME280;61354;50.758;6.106;2023-06-24T07:02:44;100085.88;;;19.34;91.51
73151;BME280;61354;50.758;6.106;2023-06-24T07:05:09;100086.69;;;19.38;90.92
73151;BME280;61354;50.758;6.106;2023-06-24T07:07:37;100083.09;;;19.41;91.00
73151;BME280;61354;50.758;6.106;2023-06-24T07:10:04;100085.53;;;19.46;90.38
73151;BME280;61354;50.758;6.106;2023-06-24T07:12:31;100085.94;;;19.52;90.66
73151;BME280;61354;50.758;6.106;2023-06-24T07:14:57;100088.00;;;19.58;91.09
73151;BME280;61354;50.758;6.106;2023-06-24T07:17:22;100085.56;;;19.60;89.47
73151;BME280;61354;50.758;6.106;2023-06-24T07:19:48;100088.03;;;19.66;90.31
73151;BME280;61354;50.758;6.106;2023-06-24T07:22:14;100084.03;;;19.67;89.94
73151;BME280;61354;50.758;6.106;2023-06-24T07:24:40;100080.03;;;19.75;91.22
73151;BME280;61354;50.758;6.106;2023-06-24T07:27:06;100081.66;;;19.76;89.04
73151;BME280;61354;50.758;6.106;2023-06-24T07:29:32;100084.88;;;19.78;89.32
73151;BME280;61354;50.758;6.106;2023-06-24T07:31:57;100083.69;;;19.86;88.26
73151;BME280;61354;50.758;6.106;2023-06-24T07:34:23;100077.25;;;19.89;88.54
73151;BME280;61354;50.758;6.106;2023-06-24T07:36:48;100075.28;;;19.97;87.75
73151;BME280;61354;50.758;6.106;2023-06-24T07:39:16;100082.94;;;20.07;88.41
73151;BME280;61354;50.758;6.106;2023-06-24T07:41:42;100086.59;;;20.07;84.61
73151;BME280;61354;50.758;6.106;2023-06-24T07:44:08;100083.38;;;20.13;85.12
73151;BME280;61354;50.758;6.106;2023-06-24T07:46:34;100090.22;;;20.19;82.35
73151;BME280;61354;50.758;6.106;2023-06-24T07:49:00;100089.84;;;20.24;83.20
73151;BME280;61354;50.758;6.106;2023-06-24T07:51:26;100090.66;;;20.24;83.94
73151;BME280;61354;50.758;6.106;2023-06-24T07:53:52;100089.41;;;20.22;82.44
73151;BME280;61354;50.758;6.106;2023-06-24T07:56:17;100086.63;;;20.29;80.93
73151;BME280;61354;50.758;6.106;2023-06-24T07:58:43;100085.81;;;20.25;80.63
73151;BME280;61354;50.758;6.106;2023-06-24T08:01:08;100084.19;;;20.34;82.23
73151;BME280;61354;50.758;6.106;2023-06-24T08:03:34;100075.31;;;20.40;80.97
73151;BME280;61354;50.758;6.106;2023-06-24T08:06:02;100088.63;;;20.39;80.15
73151;BME280;61354;50.758;6.106;2023-06-24T08:08:27;100090.69;;;20.49;78.26
73151;BME280;61354;50.758;6.106;2023-06-24T08:10:53;100088.28;;;20.55;78.92
73151;BME280;61354;50.758;6.106;2023-06-24T08:13:18;100087.47;;;20.69;78.04
73151;BME280;61354;50.758;6.106;2023-06-24T08:15:44;100085.06;;;20.64;76.53
73151;BME280;61354;50.758;6.106;2023-06-24T08:18:10;100076.59;;;20.78;78.44
73151;BME280;61354;50.758;6.106;2023-06-24T08:20:35;100073.78;;;20.78;77.04
73151;BME280;61354;50.758;6.106;2023-06-24T08:23:01;100072.13;;;20.84;78.52
73151;BME280;61354;50.758;6.106;2023-06-24T08:25:27;100076.19;;;20.90;79.29
73151;BME280;61354;50.758;6.106;2023-06-24T08:27:52;100075.34;;;20.93;78.85
73151;BME280;61354;50.758;6.106;2023-06-24T08:30:18;100068.91;;;20.93;77.66
73151;BME280;61354;50.758;6.106;2023-06-24T08:32:43;100072.94;;;20.95;76.61
73151;BME280;61354;50.758;6.106;2023-06-24T08:35:09;100070.50;;;21.04;77.45
73151;BME280;61354;50.758;6.106;2023-06-24T08:37:36;100070.06;;;21.02;75.23
73151;BME280;61354;50.758;6.106;2023-06-24T08:40:02;100065.22;;;21.10;76.01
73151;BME280;61354;50.758;6.106;2023-06-24T08:42:30;100070.06;;;21.17;75.14
73151;BME280;61354;50.758;6.106;2023-06-24T08:44:55;100072.06;;;21.34;75.10
73151;BME280;61354;50.758;6.106;2023-06-24T08:47:24;100075.69;;;21.24;71.50
73151;BME280;61354;50.758;6.106;2023-06-24T08:49:53;100071.69;;;21.32;72.98
73151;BME280;61354;50.758;6.106;2023-06-24T08:52:25;100064.78;;;21.40;73.33
73151;BME280;61354;50.758;6.106;2023-06-24T08:54:55;100067.19;;;21.45;72.95
73151;BME280;61354;50.758;6.106;2023-06-24T08:57:23;100067.19;;;21.38;71.54
73151;BME280;61354;50.758;6.106;2023-06-24T08:59:49;100071.19;;;21.51;73.17
73151;BME280;61354;50.758;6.106;2023-06-24T09:02:14;100072.78;;;21.56;72.78
73151;BME280;61354;50.758;6.106;2023-06-24T09:04:40;100073.19;;;21.62;70.94
73151;BME280;61354;50.758;6.106;2023-06-24T09:07:06;100074.75;;;21.70;68.58
73151;BME280;61354;50.758;6.106;2023-06-24T09:09:32;100067.09;;;21.67;68.07
73151;BME280;61354;50.758;6.106;2023-06-24T09:11:59;100066.22;;;21.80;68.85
73151;BME280;61354;50.758;6.106;2023-06-24T09:14:25;100061.25;;;22.02;68.71
73151;BME280;61354;50.758;6.106;2023-06-24T09:16:59;100066.16;;;21.91;60.04
73151;BME280;61354;50.758;6.106;2023-06-24T09:19:28;100069.38;;;21.93;61.01
73151;BME280;61354;50.758;6.106;2023-06-24T09:22:09;100064.94;;;21.92;64.35
73151;BME280;61354;50.758;6.106;2023-06-24T09:24:43;100066.94;;;21.95;61.47
73151;BME280;61354;50.758;6.106;2023-06-24T09:27:13;100064.94;;;21.92;60.99
73151;BME280;61354;50.758;6.106;2023-06-24T09:29:40;100062.84;;;22.07;60.62
73151;BME280;61354;50.758;6.106;2023-06-24T09:32:06;100056.34;;;22.14;59.29
73151;BME280;61354;50.758;6.106;2023-06-24T09:34:33;100050.72;;;22.06;56.91
73151;BME280;61354;50.758;6.106;2023-06-24T09:36:59;100053.00;;;22.29;58.42
73151;BME280;61354;50.758;6.106;2023-06-24T09:39:26;100043.31;;;22.27;52.86
73151;BME280;61354;50.758;6.106;2023-06-24T09:42:00;100049.72;;;22.34;56.29
73151;BME280;61354;50.758;6.106;2023-06-24T09:44:27;100048.91;;;22.38;55.26
73151;BME280;61354;50.758;6.106;2023-06-24T09:46:53;100040.84;;;22.36;54.59
73151;BME280;61354;50.758;6.106;2023-06-24T09:49:19;100031.91;;;22.41;54.74
73151;BME280;61354;50.758;6.106;2023-06-24T09:51:47;100032.72;;;22.38;55.26
73151;BME280;61354;50.758;6.106;2023-06-24T09:54:14;100032.63;;;22.52;54.37
73151;BME280;61354;50.758;6.106;2023-06-24T09:56:43;100026.03;;;22.63;49.06
73151;BME280;61354;50.758;6.106;2023-06-24T09:59:12;100028.50;;;22.61;53.56
73151;BME280;61354;50.758;6.106;2023-06-24T10:01:39;100020.31;;;22.70;50.86
73151;BME280;61354;50.758;6.106;2023-06-24T10:04:06;100020.25;;;22.77;54.27
73151;BME280;61354;50.758;6.106;2023-06-24T10:06:33;100028.38;;;22.75;56.09
73151;BME280;61354;50.758;6.106;2023-06-24T10:09:00;100025.03;;;22.83;57.84
73151;BME280;61354;50.758;6.106;2023-06-24T10:11:26;100022.44;;;23.03;53.36
73151;BME280;61354;50.758;6.106;2023-06-24T10:13:52;100020.06;;;22.98;52.89
73151;BME280;61354;50.758;6.106;2023-06-24T10:16:18;100014.69;;;23.07;51.75
73151;BME280;61354;50.758;6.106;2023-06-24T10:18:45;100006.28;;;23.00;50.55
73151;BME280;61354;50.758;6.106;2023-06-24T10:21:11;100006.28;;;23.00;51.16
73151;BME280;61354;50.758;6.106;2023-06-24T10:23:52;100002.09;;;23.12;52.13
73151;BME280;61354;50.758;6.106;2023-06-24T10:26:29;100006.16;;;23.11;46.95
73151;BME280;61354;50.758;6.106;2023-06-24T10:31:52;100001.59;;;23.21;45.92
73151;BME280;61354;50.758;6.106;2023-06-24T10:34:28;99999.94;;;23.23;45.78
73151;BME280;61354;50.758;6.106;2023-06-24T10:36:54;99990.84;;;23.05;42.19
73151;BME280;61354;50.758;6.106;2023-06-24T10:42:31;99994.59;;;23.29;41.76
73151;BME280;61354;50.758;6.106;2023-06-24T10:45:12;99993.69;;;23.39;42.80
73151;BME280;61354;50.758;6.106;2023-06-24T10:47:40;99986.31;;;23.45;48.10
73151;BME280;61354;50.758;6.106;2023-06-24T10:50:08;99984.78;;;23.37;45.57
73151;BME280;61354;50.758;6.106;2023-06-24T10:52:44;99976.84;;;23.25;40.64
73151;BME280;61354;50.758;6.106;2023-06-24T10:55:13;99981.13;;;23.40;43.74
73151;BME280;61354;50.758;6.106;2023-06-24T10:57:39;99971.59;;;23.54;44.62
73151;BME280;61354;50.758;6.106;2023-06-24T11:00:05;99964.16;;;23.64;42.05
73151;BME280;61354;50.758;6.106;2023-06-24T11:02:31;99974.69;;;23.36;39.33
73151;BME280;61354;50.758;6.106;2023-06-24T11:05:01;99965.50;;;23.55;43.81
73151;BME280;61354;50.758;6.106;2023-06-24T11:07:28;99976.25;;;23.71;38.77
73151;BME280;61354;50.758;6.106;2023-06-24T11:10:01;99974.69;;;23.67;38.43
73151;BME280;61354;50.758;6.106;2023-06-24T11:12:31;99959.97;;;23.75;44.35
73151;BME280;61354;50.758;6.106;2023-06-24T11:14:58;99968.84;;;23.81;41.47
73151;BME280;61354;50.758;6.106;2023-06-24T11:17:24;99954.25;;;23.79;41.50
73151;BME280;61354;50.758;6.106;2023-06-24T11:19:52;99953.41;;;23.82;40.18
73151;BME280;61354;50.758;6.106;2023-06-24T11:22:18;99959.84;;;23.86;39.81
73151;BME280;61354;50.758;6.106;2023-06-24T11:24:43;99949.03;;;24.01;42.38
73151;BME280;61354;50.758;6.106;2023-06-24T11:27:09;99954.25;;;24.06;41.04
73151;BME280;61354;50.758;6.106;2023-06-24T11:29:35;99952.41;;;24.19;41.83
73151;BME280;61354;50.758;6.106;2023-06-24T11:32:07;99950.19;;;24.07;38.97
73151;BME280;61354;50.758;6.106;2023-06-24T11:34:33;99946.44;;;24.14;39.55
73151;BME280;61354;50.758;6.106;2023-06-24T11:36:58;99936.78;;;24.08;40.88
73151;BME280;61354;50.758;6.106;2023-06-24T11:39:25;99945.69;;;24.10;39.55
73151;BME280;61354;50.758;6.106;2023-06-24T11:41:52;99945.31;;;24.31;38.82
73151;BME280;61354;50.758;6.106;2023-06-24T11:44:23;99938.03;;;24.30;36.99
73151;BME280;61354;50.758;6.106;2023-06-24T11:46:49;99937.97;;;24.34;38.10
73151;BME280;61354;50.758;6.106;2023-06-24T11:49:15;99935.31;;;24.46;37.79
73151;BME280;61354;50.758;6.106;2023-06-24T11:51:49;99936.41;;;24.29;38.77
73151;BME280;61354;50.758;6.106;2023-06-24T11:54:17;99936.91;;;24.24;39.74
73151;BME280;61354;50.758;6.106;2023-06-24T11:56:44;99930.69;;;24.33;38.41
73151;BME280;61354;50.758;6.106;2023-06-24T12:01:57;99923.34;;;24.35;39.98
73151;BME280;61354;50.758;6.106;2023-06-24T12:04:30;99925.22;;;24.45;40.50
73151;BME280;61354;50.758;6.106;2023-06-24T12:06:56;99920.94;;;24.57;39.33
73151;BME280;61354;50.758;6.106;2023-06-24T12:09:22;99918.16;;;24.53;38.75
73151;BME280;61354;50.758;6.106;2023-06-24T12:11:48;99920.44;;;24.62;40.78
73151;BME280;61354;50.758;6.106;2023-06-24T12:14:13;99913.72;;;24.52;38.78
73151;BME280;61354;50.758;6.106;2023-06-24T12:16:39;99912.22;;;24.68;39.36
73151;BME280;61354;50.758;6.106;2023-06-24T12:19:08;99913.94;;;24.62;37.97
73151;BME280;61354;50.758;6.106;2023-06-24T12:21:34;99920.09;;;24.80;39.26
73151;BME280;61354;50.758;6.106;2023-06-24T12:24:01;99912.28;;;24.84;36.77
73151;BME280;61354;50.758;6.106;2023-06-24T12:26:27;99907.81;;;24.63;39.23
73151;BME280;61354;50.758;6.106;2023-06-24T12:28:54;99907.41;;;24.65;38.31
73151;BME280;61354;50.758;6.106;2023-06-24T12:31:21;99905.22;;;24.92;37.38
73151;BME280;61354;50.758;6.106;2023-06-24T12:33:47;99911.50;;;24.64;35.70
73151;BME280;61354;50.758;6.106;2023-06-24T12:36:12;99899.78;;;24.82;38.86
73151;BME280;61354;50.758;6.106;2023-06-24T12:38:38;99898.50;;;24.63;36.88
73151;BME280;61354;50.758;6.106;2023-06-24T12:41:03;99892.91;;;24.79;37.51
73151;BME280;61354;50.758;6.106;2023-06-24T12:43:29;99897.28;;;25.03;37.18
73151;BME280;61354;50.758;6.106;2023-06-24T12:45:55;99890.72;;;25.07;40.35
73151;BME280;61354;50.758;6.106;2023-06-24T12:48:21;99889.72;;;25.17;39.01
73151;BME280;61354;50.758;6.106;2023-06-24T12:50:46;99892.31;;;25.08;36.41
73151;BME280;61354;50.758;6.106;2023-06-24T12:53:14;99887.59;;;25.21;37.37
73151;BME280;61354;50.758;6.106;2023-06-24T12:55:41;99893.94;;;25.09;35.34
73151;BME280;61354;50.758;6.106;2023-06-24T12:58:07;99889.47;;;25.08;36.76
73151;BME280;61354;50.758;6.106;2023-06-24T13:00:32;99885.81;;;25.11;38.05
73151;BME280;61354;50.758;6.106;2023-06-24T13:02:58;99877.31;;;25.27;39.41
73151;BME280;61354;50.758;6.106;2023-06-24T13:05:24;99885.81;;;25.11;38.72
73151;BME280;61354;50.758;6.106;2023-06-24T13:07:50;99884.00;;;25.37;41.20